Time;durP1;ratioP1;P1;durP2;ratioP2;P2;SDS_P1;SDS_P2;PMS_P1;PMS_P2;Temp;Humidity;BMP_temperature;BMP_pressure;BME280_temperature;BME280_humidity;BME280_pressure;Samples;Min_cycle;Max_cycle;Signal;HPM_P1;HPM_P2
2021/01/24 04:12:57;;;;;;;3.55;2.00;;;-8.10;99.50;;;;;;4949485;28;20061;-71
2021/01/24 04:15:23;;;;;;;5.13;2.22;;;-8.10;99.80;;;;;;4953590;28;20440;-71
2021/01/24 04:17:49;;;;;;;2.53;1.77;;;-8.10;99.90;;;;;;4953460;28;20020;-71
2021/01/24 04:20:14;;;;;;;2.55;2.03;;;-8.10;99.90;;;;;;4953597;28;20435;-69
2021/01/24 04:22:40;;;;;;;2.70;2.00;;;-8.10;99.50;;;;;;4953459;28;20023;-68
2021/01/24 04:25:07;;;;;;;5.93;2.45;;;-8.30;98.00;;;;;;4953544;28;20050;-68
2021/01/24 04:27:32;;;;;;;3.20;1.90;;;-8.30;98.80;;;;;;4953589;29;20094;-69
2021/01/24 04:29:58;;;;;;;4.32;2.28;;;-8.30;99.10;;;;;;4953450;28;20167;-70
2021/01/24 04:32:24;;;;;;;2.78;2.30;;;-8.30;98.70;;;;;;4953412;28;20468;-70
2021/01/24 04:34:49;;;;;;;3.90;2.00;;;-8.30;98.60;;;;;;4952647;28;20038;-70
2021/01/24 04:37:15;;;;;;;4.97;2.50;;;-8.30;99.90;;;;;;4953403;28;20364;-70
2021/01/24 04:39:41;;;;;;;2.60;1.98;;;-8.30;99.50;;;;;;4953324;28;20046;-70
2021/01/24 04:42:07;;;;;;;6.07;2.33;;;-8.30;98.30;;;;;;4953497;28;20070;-70
2021/01/24 04:44:35;;;;;;;1.75;1.65;;;-8.40;96.90;;;;;;4953281;28;20146;-70
2021/01/24 04:47:01;;;;;;;4.10;2.05;;;-8.40;97.20;;;;;;4953174;28;20487;-69
2021/01/24 04:49:27;;;;;;;1.75;1.63;;;-8.50;97.10;;;;;;4953562;28;20046;-70
2021/01/24 04:51:53;;;;;;;4.47;2.63;;;-8.50;98.20;;;;;;4951878;28;20019;-70
2021/01/24 04:54:19;;;;;;;2.17;1.77;;;-8.50;98.00;;;;;;4953186;28;20121;-70
2021/01/24 04:56:45;;;;;;;2.92;2.15;;;-8.50;97.50;;;;;;4953414;28;20024;-70
2021/01/24 04:59:11;;;;;;;2.03;1.77;;;-8.50;97.70;;;;;;4953699;29;20106;-70
2021/01/24 05:01:39;;;;;;;5.28;1.95;;;-8.50;97.60;;;;;;4954055;28;20033;-70
2021/01/24 05:04:06;;;;;;;5.05;2.03;;;-8.50;99.00;;;;;;4956995;28;20019;-70
2021/01/24 05:06:31;;;;;;;4.80;1.85;;;-8.50;99.90;;;;;;4957085;28;20090;-70
2021/01/24 05:09:01;;;;;;;2.80;1.77;;;-8.50;98.30;;;;;;4956953;28;20043;-68
2021/01/24 05:11:27;;;;;;;3.45;2.03;;;-8.50;98.70;;;;;;4956965;28;20479;-68
2021/01/24 05:13:53;;;;;;;3.40;2.10;;;-8.50;99.40;;;;;;4956715;28;20134;-69
2021/01/24 05:16:22;;;;;;;4.10;2.05;;;-8.50;99.90;;;;;;4956831;28;20089;-69
2021/01/24 05:18:58;;;;;;;6.43;2.07;;;-8.40;99.30;;;;;;4956537;28;20027;-69
2021/01/24 05:21:26;;;;;;;4.70;2.35;;;-8.50;96.90;;;;;;4956695;28;20666;-68
2021/01/24 05:23:54;;;;;;;3.05;1.90;;;-8.60;97.10;;;;;;4956441;28;20555;-68
2021/01/24 05:26:20;;;;;;;3.53;2.22;;;-8.60;98.60;;;;;;4956667;28;20032;-69
2021/01/24 05:28:47;;;;;;;5.50;2.40;;;-8.50;99.50;;;;;;4956771;28;20046;-69
2021/01/24 05:31:13;;;;;;;2.45;2.00;;;-8.40;99.40;;;;;;4955461;28;20019;-69
2021/01/24 05:33:43;;;;;;;4.97;2.47;;;-8.40;99.30;;;;;;4956698;28;20373;-70
2021/01/24 05:36:09;;;;;;;3.45;2.22;;;-8.40;98.20;;;;;;4956242;28;20025;-73
2021/01/24 05:38:35;;;;;;;3.55;2.10;;;-8.40;99.00;;;;;;4956307;28;20117;-72
2021/01/24 05:41:03;;;;;;;5.63;2.20;;;-8.30;99.90;;;;;;4956157;28;20043;-75
2021/01/24 05:43:35;;;;;;;2.30;2.08;;;-7.40;99.90;;;;;;4956618;28;20039;-70
2021/01/24 05:46:01;;;;;;;5.03;2.35;;;-7.20;99.90;;;;;;4956027;28;20027;-68
2021/01/24 05:48:27;;;;;;;3.65;2.50;;;-7.60;99.90;;;;;;4955989;28;20412;-74
2021/01/24 05:50:53;;;;;;;5.03;2.20;;;-7.90;99.90;;;;;;4956084;28;20110;-72
2021/01/24 05:53:19;;;;;;;14.55;5.05;;;-7.90;99.90;;;;;;4955886;28;20151;-71
2021/01/24 05:55:45;;;;;;;6.43;3.13;;;-8.00;99.90;;;;;;4955268;28;20071;-70
2021/01/24 05:58:22;;;;;;;11.07;3.95;;;-8.10;99.90;;;;;;4955504;28;20028;-69
2021/01/24 06:00:53;;;;;;;6.65;3.10;;;-8.10;99.90;;;;;;4955521;29;20494;-72
2021/01/24 06:03:20;;;;;;;4.28;2.10;;;-8.20;99.90;;;;;;4955340;28;20082;-70
2021/01/24 06:05:46;;;;;;;4.68;2.25;;;-8.20;99.70;;;;;;4955104;28;20039;-70
2021/01/24 06:08:17;;;;;;;2.17;1.95;;;-8.40;99.70;;;;;;4955382;29;20506;-70
2021/01/24 06:10:43;;;;;;;;;;;-8.40;99.90;;;;;;4947284;29;20396;-71
2021/01/24 06:13:23;;;;;;;5.00;2.15;;;-8.40;97.70;;;;;;4953338;28;19921;-71
2021/01/24 06:15:51;;;;;;;1.77;1.67;;;-8.40;98.80;;;;;;4946918;28;20054;-69
2021/01/24 06:18:23;;;;;;;3.70;2.03;;;-8.50;97.50;;;;;;4955398;28;20038;-70
2021/01/24 06:20:55;;;;;;;2.95;2.10;;;-8.50;99.20;;;;;;4954685;28;20045;-70
2021/01/24 06:23:45;;;;;;;3.25;1.88;;;-8.50;99.90;;;;;;4955008;28;20019;-70
2021/01/24 06:26:13;;;;;;;1.92;1.65;;;-8.50;99.60;;;;;;4955455;28;20032;-72
2021/01/24 06:28:45;;;;;;;3.97;2.03;;;-8.50;99.90;;;;;;4955508;28;20043;-77
2021/01/24 06:31:15;;;;;;;2.47;1.85;;;-8.50;99.60;;;;;;4955574;28;20131;-69
2021/01/24 06:33:45;;;;;;;4.20;2.00;;;-8.50;98.80;;;;;;4955670;28;20077;-72
2021/01/24 06:36:13;;;;;;;3.35;2.42;;;-8.10;99.90;;;;;;4954003;28;20043;-72
2021/01/24 06:38:43;;;;;;;9.45;4.88;;;-7.90;99.90;;;;;;4955396;28;20027;-72
2021/01/24 06:41:14;;;;;;;12.18;6.93;;;-8.00;99.90;;;;;;4955259;28;20035;-73
2021/01/24 06:43:43;;;;;;;7.82;3.88;;;-8.10;99.90;;;;;;4955331;28;20032;-73
2021/01/24 06:46:32;;;;;;;4.13;2.30;;;-8.20;99.90;;;;;;4955021;28;20030;-72
2021/01/24 06:48:58;;;;;;;3.42;2.13;;;-8.20;99.90;;;;;;4955128;28;20074;-72
2021/01/24 06:51:40;;;;;;;3.35;2.10;;;-8.20;99.90;;;;;;4955133;28;20019;-72
2021/01/24 06:54:26;;;;;;;5.93;2.50;;;-8.20;99.90;;;;;;4955151;29;20039;-72
2021/01/24 06:56:51;;;;;;;4.00;2.08;;;-8.20;99.90;;;;;;4955081;28;20379;-72
2021/01/24 06:59:28;;;;;;;3.80;2.25;;;-8.30;98.60;;;;;;4954827;28;20028;-72
2021/01/24 07:02:37;;;;;;;4.85;1.95;;;-8.40;99.50;;;;;;4954224;28;20046;-74
2021/01/24 07:05:10;;;;;;;3.05;2.15;;;-7.40;99.90;;;;;;4945196;28;20063;-73
2021/01/24 07:07:37;;;;;;;4.45;2.03;;;-5.70;99.90;;;;;;4954557;28;20059;-74
2021/01/24 07:10:05;;;;;;;5.88;2.40;;;-5.90;99.90;;;;;;4954563;28;20050;-73
2021/01/24 07:12:39;;;;;;;3.03;2.00;;;-6.60;99.90;;;;;;4954428;28;20598;-73
2021/01/24 07:15:10;;;;;;;5.25;2.58;;;-7.10;99.90;;;;;;4954308;28;20490;-72
2021/01/24 07:17:37;;;;;;;5.22;2.50;;;-7.50;99.90;;;;;;4954485;28;20483;-71
2021/01/24 07:20:11;;;;;;;5.43;2.70;;;-7.60;99.90;;;;;;4954905;28;20052;-72
2021/01/24 07:22:37;;;;;;;3.85;2.20;;;-7.70;99.90;;;;;;4950219;28;20058;-74
2021/01/24 07:25:03;;;;;;;3.88;2.35;;;-7.80;99.90;;;;;;4952880;28;20448;-73
2021/01/24 07:27:29;;;;;;;4.35;2.20;;;-7.90;99.90;;;;;;4954148;28;20475;-74
2021/01/24 07:29:56;;;;;;;3.90;2.28;;;-8.00;99.90;;;;;;4954370;28;20380;-73
2021/01/24 07:32:24;;;;;;;4.43;2.58;;;-8.10;99.90;;;;;;4954447;28;20035;-74
2021/01/24 07:34:53;;;;;;;4.40;2.08;;;-8.10;99.90;;;;;;4954511;28;20035;-74
2021/01/24 07:37:19;;;;;;;4.05;1.98;;;-8.20;99.90;;;;;;4954282;28;20027;-76
2021/01/24 07:39:47;;;;;;;6.80;2.90;;;-8.20;99.90;;;;;;4954355;28;20019;-73
2021/01/24 07:42:14;;;;;;;6.63;2.22;;;-8.30;99.90;;;;;;4954204;28;20031;-73
2021/01/24 07:44:41;;;;;;;4.32;2.28;;;-8.40;99.90;;;;;;4953993;28;20023;-73
2021/01/24 07:47:07;;;;;;;4.13;2.15;;;-8.40;99.90;;;;;;4953894;28;20031;-70
2021/01/24 07:49:33;;;;;;;5.50;2.22;;;-8.50;99.90;;;;;;4953952;29;20051;-69
2021/01/24 07:52:01;;;;;;;2.25;2.00;;;-8.50;99.90;;;;;;4953953;29;20046;-71
2021/01/24 07:54:27;;;;;;;3.65;2.17;;;-8.50;99.70;;;;;;4954351;29;20054;-69
2021/01/24 07:56:53;;;;;;;6.90;2.30;;;-8.50;99.90;;;;;;4953940;28;20476;-70
2021/01/24 07:59:20;;;;;;;4.22;1.95;;;-8.50;99.90;;;;;;4953974;28;20031;-69
2021/01/24 08:01:46;;;;;;;3.15;2.40;;;-8.50;99.90;;;;;;4953689;28;20023;-69
2021/01/24 08:04:12;;;;;;;3.50;2.40;;;-8.50;99.90;;;;;;4953727;28;20073;-69
2021/01/24 08:06:38;;;;;;;2.50;2.17;;;-8.50;99.90;;;;;;4953884;28;20035;-69
2021/01/24 08:09:08;;;;;;;6.00;2.95;;;-8.50;99.90;;;;;;4953692;28;20579;-69
2021/01/24 08:11:35;;;;;;;4.25;2.28;;;-8.50;99.90;;;;;;4954023;29;20074;-70
2021/01/24 08:14:02;;;;;;;4.22;2.40;;;-8.50;99.90;;;;;;4953325;28;20053;-70
2021/01/24 08:16:43;;;;;;;6.97;2.55;;;-8.50;99.90;;;;;;4953600;28;20062;-69
2021/01/24 08:19:10;;;;;;;;;;;-8.50;99.90;;;;;;4953895;28;20506;-69
2021/01/24 08:21:37;;;;;;;4.05;2.25;;;-8.50;99.90;;;;;;4953983;28;19906;-69
2021/01/24 08:24:03;;;;;;;3.30;2.08;;;-8.50;99.90;;;;;;4953505;28;20045;-69
2021/01/24 08:26:29;;;;;;;4.90;2.72;;;-8.40;99.90;;;;;;4953415;28;20030;-72
2021/01/24 08:28:55;;;;;;;8.20;2.58;;;-8.40;99.90;;;;;;4953321;28;20085;-72
2021/01/24 08:31:22;;;;;;;6.10;2.65;;;-8.50;99.90;;;;;;4953354;28;20460;-71
2021/01/24 08:33:51;;;;;;;4.82;2.80;;;-8.50;99.90;;;;;;4950455;28;20507;-71
2021/01/24 08:36:20;;;;;;;4.75;2.30;;;-8.40;99.90;;;;;;4944277;28;20499;-70
2021/01/24 08:38:47;;;;;;;4.75;2.47;;;-8.50;99.90;;;;;;4958166;28;20038;-71
2021/01/24 08:41:15;;;;;;;2.55;2.10;;;-8.50;99.90;;;;;;4958158;28;20114;-71
2021/01/24 08:43:41;;;;;;;3.75;2.45;;;-8.50;99.90;;;;;;4958947;29;20031;-70
2021/01/24 08:46:38;;;;;;;3.10;2.40;;;-8.50;99.90;;;;;;4958010;28;20435;-71
2021/01/24 08:49:05;;;;;;;3.83;2.40;;;-8.50;99.90;;;;;;4943293;28;20214;-72
2021/01/24 08:51:47;;;;;;;4.35;2.53;;;-8.40;99.90;;;;;;4959620;28;20050;-72
2021/01/24 08:54:37;;;;;;;2.28;2.08;;;-8.40;99.90;;;;;;4959869;28;20039;-72
2021/01/24 08:57:10;;;;;;;2.88;2.38;;;-8.30;99.90;;;;;;4959938;28;20020;-71
2021/01/24 08:59:36;;;;;;;6.32;2.88;;;-8.40;99.90;;;;;;4959741;28;20024;-69
2021/01/24 09:02:03;;;;;;;3.97;2.22;;;-8.40;99.90;;;;;;4959094;29;20110;-68
2021/01/24 09:04:33;;;;;;;2.55;1.98;;;-8.40;99.90;;;;;;4959491;28;20038;-68
2021/01/24 09:07:13;;;;;;;3.70;2.15;;;-8.20;99.90;;;;;;4959302;29;20031;-68
2021/01/24 09:09:45;;;;;;;4.07;2.40;;;-7.80;99.90;;;;;;4959458;28;20074;-69
2021/01/24 09:12:16;;;;;;;5.72;2.45;;;-7.40;99.90;;;;;;4959272;28;20570;-69
2021/01/24 09:14:43;;;;;;;3.55;2.08;;;-7.10;99.90;;;;;;4959320;28;20138;-69
2021/01/24 09:17:08;;;;;;;3.28;2.03;;;-6.70;99.90;;;;;;4958521;28;20050;-69
2021/01/24 09:19:36;;;;;;;7.25;2.75;;;-7.00;99.90;;;;;;4959159;28;20062;-72
2021/01/24 09:22:04;;;;;;;3.20;2.50;;;-6.90;99.90;;;;;;4958801;28;20126;-73
2021/01/24 09:24:30;;;;;;;11.38;3.03;;;-7.20;99.90;;;;;;4974233;28;20027;-73
2021/01/24 09:26:55;;;;;;;4.20;2.40;;;-7.40;99.90;;;;;;4959508;28;20368;-70
2021/01/24 09:29:21;;;;;;;6.13;2.10;;;-7.40;99.90;;;;;;4959318;28;20443;-75
2021/01/24 09:31:47;;;;;;;4.35;2.53;;;-5.20;99.90;;;;;;4959683;28;20019;-73
2021/01/24 09:34:13;;;;;;;3.83;2.30;;;-4.10;99.90;;;;;;4959526;28;20068;-71
2021/01/24 09:36:39;;;;;;;2.97;2.47;;;-5.00;99.90;;;;;;4959684;28;20046;-73
2021/01/24 09:39:06;;;;;;;6.97;2.72;;;-3.30;99.90;;;;;;4959318;28;20427;-73
2021/01/24 09:41:33;;;;;;;3.03;2.05;;;-4.20;99.90;;;;;;4959483;28;20031;-73
2021/01/24 09:43:59;;;;;;;4.20;2.30;;;-5.30;99.90;;;;;;4959307;29;20035;-73
2021/01/24 09:46:25;;;;;;;4.20;2.60;;;-6.00;99.90;;;;;;4958807;28;20435;-73
2021/01/24 09:48:51;;;;;;;2.17;1.98;;;-6.40;99.90;;;;;;4956951;28;20035;-73
2021/01/24 09:51:16;;;;;;;3.40;2.25;;;-6.70;99.90;;;;;;4955852;28;20485;-73
2021/01/24 09:53:42;;;;;;;3.15;2.05;;;-7.00;99.90;;;;;;4956151;28;20503;-73
2021/01/24 09:56:08;;;;;;;1.30;1.20;;;-7.30;99.90;;;;;;4955909;28;20031;-69
2021/01/24 09:58:34;;;;;;;4.97;2.25;;;-7.00;99.90;;;;;;4939140;29;20537;-73
2021/01/24 10:01:00;;;;;;;10.00;2.80;;;-3.70;99.90;;;;;;4955775;28;20556;-73
2021/01/24 10:03:26;;;;;;;5.38;2.80;;;-4.50;99.90;;;;;;4955583;28;20416;-73
2021/01/24 10:05:52;;;;;;;4.38;2.83;;;-5.40;99.90;;;;;;4956258;28;20027;-71
2021/01/24 10:08:18;;;;;;;3.65;2.40;;;-6.20;98.80;;;;;;4955854;28;20078;-72
2021/01/24 10:10:47;;;;;;;3.30;2.50;;;-6.60;99.90;;;;;;4955508;28;20035;-71
2021/01/24 10:13:13;;;;;;;3.38;2.33;;;-7.00;99.90;;;;;;4955630;28;20074;-71
2021/01/24 10:15:40;;;;;;;4.65;2.63;;;-7.30;99.90;;;;;;4958877;28;20095;-72
2021/01/24 10:18:07;;;;;;;9.85;2.55;;;-7.40;99.90;;;;;;4963214;28;20039;-71
2021/01/24 10:20:33;;;;;;;8.02;2.50;;;-7.50;99.90;;;;;;4955802;28;20122;-71
2021/01/24 10:22:59;;;;;;;7.53;2.55;;;-7.50;99.90;;;;;;4955951;28;20387;-71
2021/01/24 10:25:25;;;;;;;2.25;2.05;;;-7.50;99.90;;;;;;4955288;28;20047;-71
2021/01/24 10:27:51;;;;;;;2.38;2.10;;;-7.60;99.90;;;;;;4955376;28;20027;-71
2021/01/24 10:30:18;;;;;;;3.30;2.03;;;-7.70;99.90;;;;;;4955337;28;20098;-72
2021/01/24 10:32:44;;;;;;;3.05;1.77;;;-7.70;99.90;;;;;;4955126;28;20734;-72
2021/01/24 10:35:10;;;;;;;3.33;2.10;;;-7.80;99.90;;;;;;4955353;28;20039;-72
2021/01/24 10:37:36;;;;;;;2.67;2.08;;;-7.90;99.90;;;;;;4955409;28;20119;-73
2021/01/24 10:40:03;;;;;;;5.57;2.65;;;-7.90;99.90;;;;;;4955384;28;20029;-72
2021/01/24 10:42:29;;;;;;;4.72;2.30;;;-7.90;99.90;;;;;;4955177;29;20019;-72
2021/01/24 10:44:56;;;;;;;10.18;2.63;;;-7.90;99.90;;;;;;4955325;28;20054;-73
2021/01/24 10:47:22;;;;;;;4.00;2.15;;;-7.90;99.90;;;;;;4955282;28;20019;-71
2021/01/24 10:49:48;;;;;;;7.22;2.35;;;-7.90;99.90;;;;;;4954691;28;20535;-73
2021/01/24 10:52:14;;;;;;;5.13;2.50;;;-8.00;99.90;;;;;;4955330;28;20054;-72
2021/01/24 10:54:39;;;;;;;8.68;2.28;;;-8.00;99.90;;;;;;4955021;28;20027;-72
2021/01/24 10:57:05;;;;;;;2.72;2.15;;;-7.90;99.90;;;;;;4954759;28;20384;-73
2021/01/24 10:59:31;;;;;;;7.20;2.70;;;-7.80;99.90;;;;;;4953499;28;20030;-73
2021/01/24 11:01:59;;;;;;;4.28;2.47;;;-7.90;99.90;;;;;;4954645;28;20027;-73
2021/01/24 11:04:25;;;;;;;3.55;2.10;;;-8.00;99.90;;;;;;4954620;28;20019;-73
2021/01/24 11:06:50;;;;;;;4.43;2.15;;;-7.90;99.90;;;;;;4954619;28;20027;-72
2021/01/24 11:09:16;;;;;;;5.88;2.65;;;-8.00;99.90;;;;;;4954518;28;20048;-72
2021/01/24 11:11:42;;;;;;;4.25;2.55;;;-7.90;99.90;;;;;;4954719;28;20034;-72
2021/01/24 11:14:07;;;;;;;4.65;2.28;;;-7.90;99.90;;;;;;4954331;28;20043;-71
2021/01/24 11:16:33;;;;;;;4.57;2.53;;;-7.90;99.90;;;;;;4954664;28;20387;-71
2021/01/24 11:18:59;;;;;;;3.63;2.53;;;-7.90;99.90;;;;;;4954575;28;20027;-72
2021/01/24 11:21:25;;;;;;;8.82;3.17;;;-7.80;99.90;;;;;;4953143;28;20097;-72
2021/01/24 11:23:51;;;;;;;6.65;2.58;;;-7.80;99.90;;;;;;4954205;28;20435;-72
2021/01/24 11:26:17;;;;;;;4.43;2.25;;;-7.90;99.90;;;;;;4954541;28;20051;-72
2021/01/24 11:28:42;;;;;;;4.32;2.40;;;-7.80;99.90;;;;;;4954101;28;20483;-72
2021/01/24 11:31:08;;;;;;;5.13;2.40;;;-7.80;99.90;;;;;;4954083;28;20027;-72
2021/01/24 11:33:34;;;;;;;6.72;2.55;;;-7.80;99.90;;;;;;4954324;28;20031;-72
2021/01/24 11:36:00;;;;;;;4.47;2.25;;;-7.90;99.90;;;;;;4954324;28;20470;-70
2021/01/24 11:38:25;;;;;;;4.95;2.42;;;-8.00;99.90;;;;;;4954506;29;20027;-71
2021/01/24 11:40:51;;;;;;;7.97;1.92;;;-7.90;99.90;;;;;;4954485;28;20114;-71
2021/01/24 11:43:17;;;;;;;5.47;2.50;;;-7.80;99.90;;;;;;4954036;28;20031;-71
2021/01/24 11:45:43;;;;;;;8.13;2.58;;;-7.90;99.90;;;;;;4954180;28;20031;-72
2021/01/24 11:48:09;;;;;;;4.38;2.65;;;-8.00;99.90;;;;;;4952525;28;20062;-72
2021/01/24 11:50:34;;;;;;;6.57;2.42;;;-7.90;99.90;;;;;;4954039;28;20031;-72
2021/01/24 11:53:00;;;;;;;3.78;2.65;;;-7.80;99.90;;;;;;4953899;28;20019;-72
2021/01/24 11:55:26;;;;;;;6.60;2.85;;;-7.80;99.90;;;;;;4952773;28;20031;-72
2021/01/24 11:57:52;;;;;;;4.13;2.17;;;-7.90;99.90;;;;;;4953906;28;20035;-71
2021/01/24 12:00:18;;;;;;;6.75;2.10;;;-7.90;99.90;;;;;;4952491;28;20472;-71
2021/01/24 12:02:44;;;;;;;6.22;2.42;;;-7.90;99.90;;;;;;4952572;28;20114;-71
2021/01/24 12:05:10;;;;;;;5.90;2.38;;;-7.90;99.90;;;;;;4953570;28;20098;-72
2021/01/24 12:07:36;;;;;;;7.40;4.78;;;-7.90;99.90;;;;;;4953830;28;20030;-71
2021/01/24 12:10:01;;;;;;;5.68;2.63;;;-8.00;99.90;;;;;;4953840;28;20027;-71
2021/01/24 12:12:27;;;;;;;4.45;2.17;;;-8.00;99.90;;;;;;4952946;28;20055;-71
2021/01/24 12:14:53;;;;;;;4.57;2.75;;;-8.00;99.90;;;;;;4953708;28;20113;-71
2021/01/24 12:17:24;;;;;;;8.25;3.10;;;-8.10;99.90;;;;;;4953686;28;20027;-71
2021/01/24 12:19:51;;;;;;;6.78;3.00;;;-8.00;99.90;;;;;;4953787;28;20117;-71
2021/01/24 12:22:16;;;;;;;8.48;3.67;;;-7.90;99.90;;;;;;4953471;28;20162;-71
2021/01/24 12:24:42;;;;;;;4.13;2.83;;;-7.80;99.90;;;;;;4953875;28;20453;-70
2021/01/24 12:27:08;;;;;;;5.68;2.28;;;-7.70;99.90;;;;;;4953521;28;20500;-72
2021/01/24 12:29:34;;;;;;;5.30;2.20;;;-7.70;99.90;;;;;;4953527;28;20042;-71
2021/01/24 12:31:59;;;;;;;6.88;2.47;;;-7.70;99.90;;;;;;4953525;28;20102;-72
2021/01/24 12:34:25;;;;;;;5.45;2.45;;;-7.80;99.90;;;;;;4953058;28;20049;-71
2021/01/24 12:36:51;;;;;;;6.43;2.58;;;-7.80;99.90;;;;;;4953425;28;20028;-72
2021/01/24 12:39:16;;;;;;;7.40;2.40;;;-7.90;99.90;;;;;;4953585;28;20090;-71
2021/01/24 12:41:42;;;;;;;9.23;3.53;;;-7.90;99.90;;;;;;4953324;28;20538;-70
2021/01/24 12:44:08;;;;;;;8.88;3.60;;;-7.90;99.90;;;;;;4953325;29;20019;-71
2021/01/24 12:46:34;;;;;;;5.15;2.75;;;-7.90;99.90;;;;;;4953253;28;20090;-71
2021/01/24 12:49:00;;;;;;;4.28;3.00;;;-7.80;99.90;;;;;;4953320;28;20127;-70
2021/01/24 12:51:25;;;;;;;3.78;2.95;;;-7.80;99.90;;;;;;4953331;28;20033;-70
2021/01/24 12:53:51;;;;;;;6.88;2.80;;;-7.70;99.90;;;;;;4953255;28;20031;-71
2021/01/24 12:56:17;;;;;;;5.70;2.47;;;-7.80;99.90;;;;;;4952900;28;20114;-71
2021/01/24 12:58:43;;;;;;;4.20;2.75;;;-7.80;99.90;;;;;;4953289;28;20534;-71
2021/01/24 13:01:09;;;;;;;10.20;2.70;;;-7.00;99.90;;;;;;4953140;28;20023;-71
2021/01/24 13:03:34;;;;;;;8.55;3.00;;;-6.50;99.90;;;;;;4952982;28;20026;-71
2021/01/24 13:06:00;;;;;;;9.38;2.53;;;-6.80;99.90;;;;;;4953421;28;20027;-71
2021/01/24 13:08:26;;;;;;;4.20;2.80;;;-7.10;99.90;;;;;;4952719;28;20045;-71
2021/01/24 13:10:51;;;;;;;6.05;2.83;;;-7.30;99.90;;;;;;4953112;28;20118;-71
2021/01/24 13:13:17;;;;;;;5.70;3.03;;;-7.40;99.90;;;;;;4953012;28;20127;-71
2021/01/24 13:15:43;;;;;;;5.13;2.40;;;-7.50;99.90;;;;;;4952916;28;20063;-71
2021/01/24 13:18:09;;;;;;;5.18;2.78;;;-7.50;99.90;;;;;;4953073;28;20027;-71
2021/01/24 13:20:35;;;;;;;7.90;2.95;;;-7.60;99.90;;;;;;4952764;28;20475;-71
2021/01/24 13:23:01;;;;;;;5.47;2.90;;;-7.60;99.90;;;;;;4954270;28;20027;-71
2021/01/24 13:25:26;;;;;;;10.10;3.40;;;-7.60;99.90;;;;;;4956566;28;20035;-71
2021/01/24 13:27:52;;;;;;;5.40;2.78;;;-7.60;99.90;;;;;;4955166;28;20506;-71
2021/01/24 13:30:18;;;;;;;5.90;2.70;;;-7.60;99.90;;;;;;4956565;28;20102;-71
2021/01/24 13:32:44;;;;;;;7.45;2.90;;;-7.60;99.90;;;;;;4956289;28;20034;-71
2021/01/24 13:35:10;;;;;;;7.05;2.60;;;-7.60;99.90;;;;;;4956779;28;20379;-74
2021/01/24 13:37:36;;;;;;;3.65;2.63;;;-6.60;99.90;;;;;;4957323;28;20476;-71
2021/01/24 13:40:03;;;;;;;7.95;2.95;;;-6.60;99.90;;;;;;4956399;28;20023;-72
2021/01/24 13:42:28;;;;;;;7.10;2.95;;;-6.90;99.90;;;;;;4956332;28;20047;-72
2021/01/24 13:44:54;;;;;;;6.07;2.72;;;-7.10;99.90;;;;;;4956493;28;20066;-72
2021/01/24 13:47:20;;;;;;;3.30;2.42;;;-7.30;99.90;;;;;;4956222;28;20171;-71
2021/01/24 13:49:45;;;;;;;4.85;2.70;;;-7.40;99.90;;;;;;4955622;28;20043;-73
2021/01/24 13:52:11;;;;;;;6.18;3.22;;;-7.50;99.90;;;;;;4956144;28;20109;-73
2021/01/24 13:54:37;;;;;;;5.30;2.72;;;-7.50;99.90;;;;;;4955974;28;20031;-74
2021/01/24 13:57:05;;;;;;;4.40;2.63;;;-7.40;99.90;;;;;;4955968;28;20027;-73
2021/01/24 13:59:30;;;;;;;7.20;2.70;;;-7.40;99.90;;;;;;4956095;29;20027;-73
2021/01/24 14:01:56;;;;;;;5.50;2.90;;;-7.50;99.90;;;;;;4955886;28;20597;-74
2021/01/24 14:04:22;;;;;;;5.00;3.03;;;-7.50;99.90;;;;;;4955900;28;20027;-73
2021/01/24 14:06:49;;;;;;;4.28;2.45;;;-7.60;99.90;;;;;;4955992;28;20031;-74
2021/01/24 14:09:15;;;;;;;3.97;2.80;;;-7.60;99.90;;;;;;4955850;28;20042;-74
2021/01/24 14:11:42;;;;;;;5.05;2.50;;;-7.50;99.90;;;;;;4955853;28;20028;-73
2021/01/24 14:14:07;;;;;;;6.55;2.67;;;-7.60;99.90;;;;;;4955288;28;20047;-73
2021/01/24 14:16:33;;;;;;;7.85;2.83;;;-7.60;99.90;;;;;;4955719;28;20476;-73
2021/01/24 14:18:59;;;;;;;4.95;2.35;;;-7.60;99.90;;;;;;4955578;28;20035;-74
2021/01/24 14:21:25;;;;;;;7.70;2.90;;;-7.60;99.90;;;;;;4955495;28;20027;-74
2021/01/24 14:23:51;;;;;;;9.52;2.63;;;-7.50;99.90;;;;;;4955467;28;20058;-74
2021/01/24 14:26:16;;;;;;;5.10;2.67;;;-7.50;99.90;;;;;;4955592;28;20051;-74
2021/01/24 14:28:42;;;;;;;5.60;2.88;;;-7.50;99.90;;;;;;4955550;28;20039;-74
2021/01/24 14:31:08;;;;;;;8.52;3.38;;;-7.50;99.90;;;;;;4955438;28;20093;-74
2021/01/24 14:33:34;;;;;;;4.28;2.85;;;-7.50;99.90;;;;;;4955123;28;20527;-74
2021/01/24 14:36:00;;;;;;;9.52;3.42;;;-7.60;99.90;;;;;;4954791;28;20046;-74
2021/01/24 14:38:26;;;;;;;6.57;2.80;;;-7.60;99.90;;;;;;4955534;28;20024;-74
2021/01/24 14:40:52;;;;;;;11.18;3.28;;;-7.60;99.90;;;;;;4955015;28;20410;-69
2021/01/24 14:43:17;;;;;;;6.50;3.15;;;-7.50;99.90;;;;;;4954932;28;20031;-75
2021/01/24 14:45:43;;;;;;;8.68;3.05;;;-7.10;99.90;;;;;;4955195;28;20031;-76
2021/01/24 14:48:10;;;;;;;7.43;3.38;;;-7.20;99.90;;;;;;4953526;28;20435;-74
2021/01/24 14:50:37;;;;;;;10.25;3.20;;;-7.30;99.90;;;;;;4954999;28;20391;-76
2021/01/24 14:53:03;;;;;;;9.35;3.38;;;-7.30;99.90;;;;;;4954824;28;20110;-74
2021/01/24 14:55:28;;;;;;;8.13;3.83;;;-7.40;99.90;;;;;;4954835;28;20054;-73
2021/01/24 14:57:54;;;;;;;4.68;3.33;;;-7.40;99.90;;;;;;4954974;28;20494;-73
2021/01/24 15:00:20;;;;;;;9.35;3.38;;;-7.50;99.90;;;;;;4954580;28;20032;-74
2021/01/24 15:02:46;;;;;;;3.72;2.72;;;-7.50;99.90;;;;;;4954430;28;20099;-74
2021/01/24 15:05:12;;;;;;;6.70;2.47;;;-7.50;99.90;;;;;;4953465;28;20048;-70
2021/01/24 15:07:38;;;;;;;6.97;3.25;;;-7.30;99.90;;;;;;4954470;28;20110;-73
2021/01/24 15:10:05;;;;;;;5.20;3.05;;;-6.00;99.90;;;;;;4954632;28;20127;-71
2021/01/24 15:12:31;;;;;;;5.28;2.80;;;-6.40;99.90;;;;;;4953660;28;20407;-71
2021/01/24 15:14:57;;;;;;;5.78;2.83;;;-6.70;99.90;;;;;;4954056;28;20051;-70
2021/01/24 15:17:24;;;;;;;9.15;2.88;;;-6.90;99.90;;;;;;4954311;28;20058;-72
2021/01/24 15:19:50;;;;;;;6.88;2.72;;;-7.00;99.90;;;;;;4954465;28;20019;-73
2021/01/24 15:22:16;;;;;;;3.88;2.13;;;-7.20;99.90;;;;;;4954509;28;20523;-72
2021/01/24 15:24:42;;;;;;;5.07;3.05;;;-7.30;99.90;;;;;;4954230;28;20031;-73
2021/01/24 15:27:08;;;;;;;9.95;3.55;;;-7.40;99.90;;;;;;4958537;28;20440;-71
2021/01/24 15:29:34;;;;;;;6.97;2.92;;;-7.40;99.90;;;;;;4956593;28;20040;-71
2021/01/24 15:32:00;;;;;;;5.43;2.92;;;-7.40;99.90;;;;;;4954448;28;20085;-71
2021/01/24 15:34:26;;;;;;;8.02;2.97;;;-7.40;99.90;;;;;;4953869;28;20027;-72
2021/01/24 15:36:52;;;;;;;12.70;3.22;;;-7.40;99.90;;;;;;4954534;28;20027;-72
2021/01/24 15:39:17;;;;;;;7.57;3.20;;;-7.40;99.90;;;;;;4954210;28;20074;-72
2021/01/24 15:41:43;;;;;;;5.65;3.15;;;-7.40;99.90;;;;;;4954128;28;20098;-72
2021/01/24 15:44:09;;;;;;;3.97;2.47;;;-7.40;99.90;;;;;;4953951;28;20019;-73
2021/01/24 15:46:37;;;;;;;3.72;2.63;;;-7.40;99.90;;;;;;4953593;28;20035;-73
2021/01/24 15:49:04;;;;;;;4.43;2.75;;;-7.40;99.90;;;;;;4953370;28;20046;-72
2021/01/24 15:51:30;;;;;;;8.32;3.30;;;-7.50;99.90;;;;;;4953631;28;20027;-73
2021/01/24 15:53:56;;;;;;;7.63;3.72;;;-7.50;99.90;;;;;;4953946;28;20041;-73
2021/01/24 15:56:22;;;;;;;5.53;3.33;;;-7.50;99.90;;;;;;4954185;28;20027;-73
2021/01/24 15:58:47;;;;;;;5.78;2.83;;;-7.50;99.90;;;;;;4954187;28;20131;-80
2021/01/24 16:01:13;;;;;;;8.05;2.65;;;-7.50;99.90;;;;;;4953802;28;20531;-81
2021/01/24 16:03:39;;;;;;;5.57;2.67;;;-7.50;99.90;;;;;;4952263;28;20041;-78
2021/01/24 16:06:05;;;;;;;6.05;3.00;;;-7.40;99.90;;;;;;4953923;28;20034;-78
2021/01/24 16:08:31;;;;;;;6.80;3.05;;;-7.40;99.90;;;;;;4953442;28;20114;-78
2021/01/24 16:11:00;;;;;;;6.00;2.63;;;-7.40;99.90;;;;;;4953774;28;20024;-79
2021/01/24 16:13:26;;;;;;;3.92;2.58;;;-7.30;99.90;;;;;;4953583;28;20082;-78
2021/01/24 16:15:52;;;;;;;18.20;5.10;;;-7.20;99.90;;;;;;4954174;28;20015;-79
2021/01/24 16:18:18;;;;;;;4.95;2.75;;;-7.30;99.90;;;;;;4953794;28;20114;-78
2021/01/24 16:20:43;;;;;;;7.07;2.78;;;-7.40;99.90;;;;;;4953699;28;20023;-79
2021/01/24 16:23:09;;;;;;;4.43;2.60;;;-7.40;99.90;;;;;;4953872;28;20442;-78
2021/01/24 16:25:35;;;;;;;5.50;2.78;;;-7.20;99.90;;;;;;4953424;28;20038;-78
2021/01/24 16:28:01;;;;;;;4.82;2.60;;;-7.00;99.90;;;;;;4953498;28;20023;-72
2021/01/24 16:30:26;;;;;;;7.50;3.20;;;-7.10;99.90;;;;;;4953433;28;20031;-73
2021/01/24 16:32:52;;;;;;;10.05;2.95;;;-7.20;99.90;;;;;;4953466;28;20408;-73
2021/01/24 16:35:18;;;;;;;10.43;3.42;;;-7.20;99.90;;;;;;4953598;28;20059;-73
2021/01/24 16:37:45;;;;;;;8.88;2.97;;;-7.30;99.90;;;;;;4953054;28;20651;-72
2021/01/24 16:40:11;;;;;;;6.57;3.35;;;-7.40;99.90;;;;;;4952699;28;20067;-73
2021/01/24 16:42:37;;;;;;;5.97;3.58;;;-7.40;99.90;;;;;;4953098;28;20121;-74
2021/01/24 16:45:04;;;;;;;4.43;2.90;;;-7.40;99.90;;;;;;4953053;28;20491;-74
2021/01/24 16:47:30;;;;;;;7.38;3.42;;;-7.40;99.90;;;;;;4953198;28;20027;-74
2021/01/24 16:49:56;;;;;;;6.22;2.90;;;-7.50;99.90;;;;;;4953414;28;20387;-74
2021/01/24 16:52:22;;;;;;;5.78;2.78;;;-7.50;99.90;;;;;;4953302;28;20020;-73
2021/01/24 16:54:48;;;;;;;6.93;2.58;;;-7.50;99.90;;;;;;4953000;28;20035;-71
2021/01/24 16:57:13;;;;;;;5.78;3.33;;;-7.40;99.90;;;;;;4953258;28;20050;-72
2021/01/24 16:59:39;;;;;;;3.72;2.42;;;-7.40;99.90;;;;;;4963844;28;20051;-76